createdAt,value
2023-05-11T00:00:16.451Z,2.50
2023-05-11T00:01:08.111Z,2.40
2023-05-11T00:01:50.263Z,2.17
2023-05-11T00:02:32.471Z,2.40
2023-05-11T00:03:15.132Z,2.05
2023-05-11T00:03:57.642Z,1.98
2023-05-11T00:04:40.115Z,1.98
2023-05-11T00:05:22.289Z,2.15
2023-05-11T00:06:04.581Z,2.30
2023-05-11T00:06:46.967Z,2.13
2023-05-11T00:07:29.608Z,2.38
2023-05-11T00:08:12.826Z,2.30
2023-05-11T00:08:55.874Z,2.10
2023-05-11T00:09:41.243Z,2.17
2023-05-11T00:10:23.718Z,1.95
2023-05-11T00:11:08.176Z,2.05
2023-05-11T00:11:50.331Z,2.20
2023-05-11T00:12:32.703Z,2.10
2023-05-11T00:13:14.950Z,2.08
2023-05-11T00:13:57.130Z,2.15
2023-05-11T00:14:39.343Z,2.10
2023-05-11T00:15:21.835Z,1.90
2023-05-11T00:16:04.558Z,2.03
2023-05-11T00:16:46.903Z,2.30
2023-05-11T00:17:29.109Z,2.22
2023-05-11T00:18:11.595Z,2.30
2023-05-11T00:18:56.116Z,2.20
2023-05-11T00:19:41.128Z,2.30
2023-05-11T00:20:26.183Z,2.40
2023-05-11T00:21:08.592Z,2.10
2023-05-11T00:21:51.209Z,2.28
2023-05-11T00:22:33.438Z,2.10
2023-05-11T00:23:16.235Z,2.10
2023-05-11T00:23:58.493Z,2.15
2023-05-11T00:24:40.929Z,2.33
2023-05-11T00:25:23.066Z,2.10
2023-05-11T00:26:05.249Z,2.10
2023-05-11T00:26:47.550Z,2.30
2023-05-11T00:27:29.694Z,2.10
2023-05-11T00:28:12.057Z,2.00
2023-05-11T00:28:54.314Z,2.05
2023-05-11T00:29:36.567Z,2.00
2023-05-11T00:30:19.215Z,2.25
2023-05-11T00:31:01.538Z,2.30
2023-05-11T00:31:48.030Z,2.25
2023-05-11T00:32:30.478Z,2.53
2023-05-11T00:33:12.902Z,2.50
2023-05-11T00:33:55.047Z,2.45
2023-05-11T00:34:37.591Z,2.58
2023-05-11T00:35:20.037Z,2.80
2023-05-11T00:36:05.928Z,2.80
2023-05-11T00:36:49.624Z,2.97
2023-05-11T00:37:32.072Z,2.60
2023-05-11T00:38:14.215Z,2.50
2023-05-11T00:38:56.444Z,2.90
2023-05-11T00:39:40.788Z,2.95
2023-05-11T00:40:23.029Z,3.17
2023-05-11T00:41:05.319Z,2.92
2023-05-11T00:41:47.809Z,2.78
2023-05-11T00:42:32.030Z,3.25
2023-05-11T00:43:14.208Z,3.00
2023-05-11T00:43:56.383Z,3.78
2023-05-11T00:44:38.546Z,3.50
2023-05-11T00:45:21.113Z,3.05
2023-05-11T00:46:06.301Z,3.45
2023-05-11T00:46:48.575Z,4.00
2023-05-11T00:47:31.154Z,3.85
2023-05-11T00:48:13.418Z,3.72
2023-05-11T00:48:55.664Z,3.70
2023-05-11T00:49:41.841Z,3.53
2023-05-11T00:50:24.154Z,3.80
2023-05-11T00:51:07.028Z,4.10
2023-05-11T00:51:49.337Z,4.22
2023-05-11T00:52:31.552Z,4.30
2023-05-11T00:53:14.323Z,4.20
2023-05-11T00:53:56.694Z,4.15
2023-05-11T00:54:40.230Z,4.32
2023-05-11T00:55:22.547Z,5.05
2023-05-11T00:56:07.904Z,5.07
2023-05-11T00:56:50.135Z,4.57
2023-05-11T00:57:33.328Z,4.63
2023-05-11T00:58:16.551Z,5.43
2023-05-11T00:59:01.113Z,5.72
2023-05-11T00:59:43.357Z,5.22
2023-05-11T01:00:25.661Z,5.65
2023-05-11T01:01:08.131Z,4.40
2023-05-11T01:01:50.534Z,4.90
2023-05-11T01:02:32.771Z,4.30
2023-05-11T01:03:16.230Z,4.70
2023-05-11T01:03:58.611Z,4.68
2023-05-11T01:04:40.775Z,4.95
2023-05-11T01:05:23.126Z,4.55
2023-05-11T01:06:05.362Z,4.25
2023-05-11T01:07:01.850Z,4.10
2023-05-11T01:07:51.183Z,4.20
2023-05-11T01:08:38.167Z,3.90
2023-05-11T01:09:36.840Z,3.63
2023-05-11T01:10:29.538Z,3.65
2023-05-11T01:11:30.370Z,3.92
2023-05-11T01:12:31.260Z,4.10
2023-05-11T01:13:13.401Z,3.60
2023-05-11T01:14:03.509Z,3.58
2023-05-11T01:15:00.461Z,4.18
2023-05-11T01:15:42.559Z,3.55
2023-05-11T01:16:27.387Z,4.22
2023-05-11T01:17:17.891Z,4.32
2023-05-11T01:18:09.649Z,3.72
2023-05-11T01:18:58.024Z,3.60
2023-05-11T01:19:43.418Z,3.67
2023-05-11T01:20:27.624Z,3.75
2023-05-11T01:21:11.277Z,3.80
2023-05-11T01:21:53.481Z,3.90
2023-05-11T01:22:44.649Z,3.47
2023-05-11T01:23:32.540Z,3.42
2023-05-11T01:24:14.752Z,3.60
2023-05-11T01:24:57.029Z,3.63
2023-05-11T01:25:41.282Z,4.30
2023-05-11T01:26:42.208Z,3.75
2023-05-11T01:27:32.801Z,3.60
2023-05-11T01:28:14.960Z,4.00
2023-05-11T01:28:57.244Z,4.45
2023-05-11T01:30:03.639Z,4.43
2023-05-11T01:31:06.376Z,4.10
2023-05-11T01:31:50.057Z,4.32
2023-05-11T01:32:35.764Z,4.63
2023-05-11T01:33:22.348Z,4.10
2023-05-11T01:34:13.086Z,4.03
2023-05-11T01:35:03.513Z,4.22
2023-05-11T01:35:51.778Z,4.60
2023-05-11T01:36:35.599Z,4.82
2023-05-11T01:37:20.006Z,5.00
2023-05-11T01:38:04.809Z,4.90
2023-05-11T01:38:48.336Z,4.90
2023-05-11T01:39:35.954Z,5.32
2023-05-11T01:40:19.655Z,4.93
2023-05-11T01:41:03.950Z,4.97
2023-05-11T01:41:52.304Z,4.88
2023-05-11T01:42:39.298Z,5.00
2023-05-11T01:43:22.354Z,5.10
2023-05-11T01:44:06.100Z,5.10
2023-05-11T01:44:52.272Z,5.75
2023-05-11T01:45:37.019Z,5.43
2023-05-11T01:46:24.450Z,5.00
2023-05-11T01:47:07.439Z,6.15
2023-05-11T01:47:50.672Z,5.60
2023-05-11T01:48:36.463Z,4.85
2023-05-11T01:49:18.745Z,5.10
2023-05-11T01:50:01.636Z,5.20
2023-05-11T01:50:46.549Z,6.00
2023-05-11T01:51:29.732Z,5.72
2023-05-11T01:52:14.409Z,5.80
2023-05-11T01:52:56.632Z,5.50
2023-05-11T01:53:41.701Z,6.05
2023-05-11T01:54:26.309Z,5.65
2023-05-11T01:55:09.111Z,5.68
2023-05-11T01:55:54.722Z,5.78
2023-05-11T01:56:38.090Z,5.95
2023-05-11T01:57:20.599Z,6.25
2023-05-11T01:58:04.621Z,5.70
2023-05-11T01:58:47.442Z,5.75
2023-05-11T01:59:30.940Z,5.82
2023-05-11T02:00:13.798Z,6.20
2023-05-11T02:00:56.588Z,5.57
2023-05-11T02:01:42.634Z,5.70
2023-05-11T02:02:27.911Z,5.90
2023-05-11T02:03:11.250Z,6.20
2023-05-11T02:03:54.565Z,6.10
2023-05-11T02:04:38.245Z,5.47
2023-05-11T02:05:22.739Z,4.80
2023-05-11T02:06:06.190Z,5.35
2023-05-11T02:06:49.769Z,5.70
2023-05-11T02:07:33.107Z,5.50
2023-05-11T02:08:15.812Z,5.60
2023-05-11T02:09:01.865Z,5.68
2023-05-11T02:09:47.602Z,6.30
2023-05-11T02:10:30.143Z,6.03
2023-05-11T02:11:14.260Z,5.85
2023-05-11T02:11:57.680Z,5.82
2023-05-11T02:12:40.551Z,6.40
2023-05-11T02:13:24.074Z,6.28
2023-05-11T02:14:06.523Z,5.13
2023-05-11T02:14:49.642Z,5.10
2023-05-11T02:15:32.083Z,5.20
2023-05-11T02:16:15.211Z,6.20
2023-05-11T02:16:58.140Z,6.03
2023-05-11T02:17:41.656Z,5.50
2023-05-11T02:18:24.154Z,6.00
2023-05-11T02:19:11.806Z,5.80
2023-05-11T02:19:54.635Z,5.57
2023-05-11T02:20:37.108Z,5.65
2023-05-11T02:21:20.099Z,6.20
2023-05-11T02:22:02.969Z,6.13
2023-05-11T02:22:45.932Z,6.60
2023-05-11T02:23:30.760Z,6.10
2023-05-11T02:24:13.428Z,6.95
2023-05-11T02:24:55.806Z,7.25
2023-05-11T02:25:41.598Z,6.70
2023-05-11T02:26:23.813Z,6.10
2023-05-11T02:27:06.102Z,6.25
2023-05-11T02:27:50.811Z,6.60
2023-05-11T02:28:32.996Z,5.90
2023-05-11T02:29:15.348Z,6.63
2023-05-11T02:29:57.636Z,7.10
2023-05-11T02:30:46.688Z,6.97
2023-05-11T02:31:29.824Z,6.45
2023-05-11T02:32:15.454Z,6.90
2023-05-11T02:33:00.796Z,7.38
2023-05-11T02:33:46.647Z,6.50
2023-05-11T02:34:29.829Z,6.72
2023-05-11T02:35:15.755Z,6.90
2023-05-11T02:36:00.926Z,7.20
2023-05-11T02:36:43.822Z,7.40
2023-05-11T02:37:26.852Z,6.88
2023-05-11T02:38:09.934Z,7.55
2023-05-11T02:38:53.816Z,6.95
2023-05-11T02:39:36.716Z,6.95
2023-05-11T02:40:19.966Z,7.85
2023-05-11T02:41:05.110Z,7.22
2023-05-11T02:41:47.389Z,7.13
2023-05-11T02:42:31.254Z,7.50
2023-05-11T02:43:14.810Z,7.28
2023-05-11T02:43:57.569Z,6.93
2023-05-11T02:44:40.062Z,7.60
2023-05-11T02:45:23.352Z,7.80
2023-05-11T02:46:12.333Z,7.95
2023-05-11T02:46:54.901Z,7.25
2023-05-11T02:47:39.908Z,7.70
2023-05-11T02:48:27.458Z,7.63
2023-05-11T02:49:11.131Z,7.20
2023-05-11T02:49:55.960Z,7.90
2023-05-11T02:50:38.810Z,7.78
2023-05-11T02:51:25.126Z,8.45
2023-05-11T02:52:08.452Z,7.93
2023-05-11T02:52:52.063Z,8.20
2023-05-11T02:53:35.376Z,7.43
2023-05-11T02:54:18.210Z,7.93
2023-05-11T02:55:02.154Z,7.53
2023-05-11T02:55:44.813Z,7.20
2023-05-11T02:56:27.516Z,7.22
2023-05-11T02:57:09.852Z,6.68
2023-05-11T02:57:52.324Z,7.35
2023-05-11T02:58:34.976Z,8.20
2023-05-11T02:59:17.234Z,7.80
2023-05-11T02:59:59.442Z,7.63
2023-05-11T03:00:41.895Z,7.55
2023-05-11T03:01:24.566Z,7.30
2023-05-11T03:02:07.305Z,7.50
2023-05-11T03:02:51.801Z,7.30
2023-05-11T03:03:34.336Z,7.18
2023-05-11T03:04:16.825Z,6.90
2023-05-11T03:04:58.967Z,7.07
2023-05-11T03:05:41.235Z,7.20
2023-05-11T03:06:25.988Z,7.50
2023-05-11T03:07:11.198Z,7.13
2023-05-11T03:07:55.042Z,7.40
2023-05-11T03:08:37.751Z,6.55
2023-05-11T03:09:19.949Z,6.85
2023-05-11T03:10:03.027Z,6.55
2023-05-11T03:10:45.410Z,6.75
2023-05-11T03:11:27.742Z,6.90
2023-05-11T03:12:10.287Z,7.32
2023-05-11T03:12:52.784Z,6.68
2023-05-11T03:13:34.959Z,6.75
2023-05-11T03:14:17.295Z,6.80
2023-05-11T03:15:00.941Z,6.28
2023-05-11T03:15:46.544Z,6.20
2023-05-11T03:16:32.376Z,6.60
2023-05-11T03:17:15.937Z,6.05
2023-05-11T03:18:00.283Z,6.45
2023-05-11T03:18:42.775Z,6.45
2023-05-11T03:19:25.142Z,6.70
2023-05-11T03:20:08.044Z,6.07
2023-05-11T03:20:51.256Z,6.68
2023-05-11T03:21:34.660Z,6.35
2023-05-11T03:22:17.218Z,7.05
2023-05-11T03:23:01.364Z,6.80
2023-05-11T03:23:44.392Z,6.88
2023-05-11T03:24:26.944Z,6.15
2023-05-11T03:25:10.370Z,6.30
2023-05-11T03:25:53.019Z,6.45
2023-05-11T03:26:36.012Z,6.40
2023-05-11T03:27:19.087Z,6.07
2023-05-11T03:28:02.190Z,6.20
2023-05-11T03:28:45.672Z,6.85
2023-05-11T03:29:28.380Z,6.10
2023-05-11T03:30:11.859Z,6.00
2023-05-11T03:30:57.109Z,5.90
2023-05-11T03:31:39.282Z,6.10
2023-05-11T03:32:21.719Z,6.13
2023-05-11T03:33:04.236Z,6.55
2023-05-11T03:33:46.398Z,5.88
2023-05-11T03:34:31.191Z,6.20
2023-05-11T03:35:13.443Z,6.15
2023-05-11T03:35:56.129Z,6.07
2023-05-11T03:36:40.117Z,5.97
2023-05-11T03:37:22.983Z,5.43
2023-05-11T03:38:06.325Z,5.43
2023-05-11T03:38:49.513Z,5.63
2023-05-11T03:39:33.367Z,6.15
2023-05-11T03:40:17.266Z,6.03
2023-05-11T03:41:00.189Z,5.72
2023-05-11T03:41:43.298Z,5.80
2023-05-11T03:42:28.909Z,6.53
2023-05-11T03:43:12.748Z,5.50
2023-05-11T03:43:56.113Z,5.90
2023-05-11T03:44:41.316Z,6.40
2023-05-11T03:45:24.174Z,6.70
2023-05-11T03:46:06.548Z,6.15
2023-05-11T03:46:50.535Z,6.10
2023-05-11T03:47:34.404Z,5.93
2023-05-11T03:48:17.113Z,6.40
2023-05-11T03:49:02.057Z,5.97
2023-05-11T03:49:44.807Z,5.88
2023-05-11T03:50:28.103Z,5.45
2023-05-11T03:51:11.305Z,6.32
2023-05-11T03:51:53.585Z,5.65
2023-05-11T03:52:36.388Z,6.15
2023-05-11T03:53:21.308Z,5.90
2023-05-11T03:54:03.502Z,6.20
2023-05-11T03:54:46.196Z,6.93
2023-05-11T03:55:28.427Z,6.00
2023-05-11T03:56:10.639Z,5.72
2023-05-11T03:56:53.164Z,5.90
2023-05-11T03:57:35.475Z,5.93
2023-05-11T03:58:17.946Z,6.03
2023-05-11T03:59:00.340Z,5.82
2023-05-11T03:59:42.536Z,5.68
2023-05-11T04:00:24.849Z,5.43
2023-05-11T04:01:11.071Z,5.70
2023-05-11T04:01:56.302Z,5.75
2023-05-11T04:02:38.584Z,5.65
2023-05-11T04:03:21.643Z,5.57
2023-05-11T04:04:06.206Z,5.63
2023-05-11T04:04:48.431Z,5.63
2023-05-11T04:05:30.665Z,5.60
2023-05-11T04:06:12.807Z,5.40
2023-05-11T04:06:57.364Z,5.38
2023-05-11T04:07:40.287Z,5.43
2023-05-11T04:08:22.502Z,5.35
2023-05-11T04:09:04.797Z,4.93
2023-05-11T04:09:47.188Z,5.95
2023-05-11T04:10:29.413Z,6.00
2023-05-11T04:11:11.704Z,5.40
2023-05-11T04:11:56.342Z,5.60
2023-05-11T04:12:38.508Z,5.82
2023-05-11T04:13:20.681Z,5.65
2023-05-11T04:14:02.836Z,5.90
2023-05-11T04:14:44.980Z,5.30
2023-05-11T04:15:27.414Z,5.50
2023-05-11T04:16:09.664Z,5.60
2023-05-11T04:16:51.966Z,5.30
2023-05-11T04:17:36.247Z,5.13
2023-05-11T04:18:18.642Z,5.63
2023-05-11T04:19:02.019Z,6.00
2023-05-11T04:19:44.398Z,5.43
2023-05-11T04:20:26.694Z,5.78
2023-05-11T04:21:08.874Z,6.30
2023-05-11T04:21:51.334Z,5.32
2023-05-11T04:22:33.538Z,6.00
2023-05-11T04:23:16.472Z,6.07
2023-05-11T04:23:58.907Z,5.65
2023-05-11T04:24:41.422Z,5.40
2023-05-11T04:25:23.938Z,5.30
2023-05-11T04:26:06.402Z,4.97
2023-05-11T04:26:48.559Z,5.40
2023-05-11T04:27:36.725Z,5.25
2023-05-11T04:28:19.053Z,5.47
2023-05-11T04:29:01.420Z,5.32
2023-05-11T04:29:43.666Z,5.30
2023-05-11T04:30:25.864Z,5.90
2023-05-11T04:31:08.205Z,5.47
2023-05-11T04:31:50.474Z,5.70
2023-05-11T04:32:32.777Z,5.35
2023-05-11T04:33:14.951Z,5.55
2023-05-11T04:33:57.385Z,5.70
2023-05-11T04:34:39.682Z,5.22
2023-05-11T04:35:22.129Z,5.90
2023-05-11T04:36:04.568Z,5.60
2023-05-11T04:36:49.941Z,5.65
2023-05-11T04:37:32.373Z,6.28
2023-05-11T04:38:14.587Z,5.90
2023-05-11T04:38:56.881Z,6.20
2023-05-11T04:39:39.083Z,6.15
2023-05-11T04:40:21.511Z,6.10
2023-05-11T04:41:04.588Z,6.30
2023-05-11T04:41:46.986Z,6.20
2023-05-11T04:42:31.536Z,6.35
2023-05-11T04:43:13.746Z,6.60
2023-05-11T04:43:55.928Z,6.40
2023-05-11T04:44:41.430Z,6.25
2023-05-11T04:45:23.587Z,7.20
2023-05-11T04:46:05.843Z,6.35
2023-05-11T04:46:48.136Z,6.03
2023-05-11T04:47:30.566Z,6.50
2023-05-11T04:48:12.939Z,6.30
2023-05-11T04:48:55.266Z,6.30
2023-05-11T04:49:37.643Z,6.50
2023-05-11T04:50:20.021Z,6.13
2023-05-11T04:51:06.117Z,6.26
2023-05-11T04:51:48.533Z,6.00
2023-05-11T04:52:30.718Z,5.97
2023-05-11T04:53:12.903Z,5.72
2023-05-11T04:53:55.081Z,6.10
2023-05-11T04:54:39.153Z,6.50
2023-05-11T04:55:21.912Z,6.55
2023-05-11T04:56:04.137Z,6.97
2023-05-11T04:56:46.608Z,6.38
2023-05-11T04:57:28.792Z,6.00
2023-05-11T04:58:10.940Z,5.90
2023-05-11T04:58:53.152Z,6.25
2023-05-11T04:59:35.639Z,6.18
2023-05-11T05:00:18.270Z,6.30
2023-05-11T05:01:00.803Z,6.70
2023-05-11T05:01:43.085Z,6.65
2023-05-11T05:02:25.755Z,6.40
2023-05-11T05:03:08.049Z,7.07
2023-05-11T05:03:50.772Z,7.75
2023-05-11T05:04:35.621Z,8.20
2023-05-11T05:05:18.901Z,8.93
2023-05-11T05:06:01.102Z,7.97
2023-05-11T05:06:43.434Z,7.95
2023-05-11T05:07:25.631Z,7.95
2023-05-11T05:08:07.906Z,8.60
2023-05-11T05:08:50.149Z,10.60
2023-05-11T05:09:32.558Z,9.60
2023-05-11T05:10:14.757Z,9.85
2023-05-11T05:10:56.948Z,11.07
2023-05-11T05:11:41.786Z,11.70
2023-05-11T05:12:23.964Z,12.18
2023-05-11T05:13:06.714Z,12.23
2023-05-11T05:13:48.893Z,11.07
2023-05-11T05:14:31.640Z,11.55
2023-05-11T05:15:13.831Z,11.90
2023-05-11T05:15:56.182Z,11.32
2023-05-11T05:16:40.705Z,11.98
2023-05-11T05:17:22.958Z,11.55
2023-05-11T05:18:07.984Z,12.00
2023-05-11T05:18:50.319Z,12.13
2023-05-11T05:19:32.607Z,10.88
2023-05-11T05:20:14.815Z,10.70
2023-05-11T05:20:57.075Z,10.80
2023-05-11T05:21:40.636Z,11.20
2023-05-11T05:22:22.900Z,11.23
2023-05-11T05:23:05.709Z,11.55
2023-05-11T05:23:47.933Z,11.85
2023-05-11T05:24:30.370Z,11.35
2023-05-11T05:25:12.664Z,11.43
2023-05-11T05:25:54.935Z,12.27
2023-05-11T05:26:37.204Z,12.10
2023-05-11T05:27:19.355Z,12.48
2023-05-11T05:28:01.724Z,11.80
2023-05-11T05:28:43.940Z,11.85
2023-05-11T05:29:26.157Z,12.35
2023-05-11T05:30:10.979Z,12.65
2023-05-11T05:30:53.274Z,12.63
2023-05-11T05:31:35.727Z,12.50
2023-05-11T05:32:17.901Z,12.70
2023-05-11T05:33:00.156Z,12.50
2023-05-11T05:33:42.669Z,12.73
2023-05-11T05:34:24.873Z,12.55
2023-05-11T05:35:07.145Z,12.70
2023-05-11T05:35:49.283Z,12.70
2023-05-11T05:36:32.415Z,12.13
2023-05-11T05:37:16.927Z,12.43
2023-05-11T05:37:59.134Z,11.93
2023-05-11T05:38:41.238Z,11.57
2023-05-11T05:39:23.512Z,12.50
2023-05-11T05:40:06.196Z,13.52
2023-05-11T05:40:48.371Z,12.93
2023-05-11T05:41:31.395Z,13.27
2023-05-11T05:42:15.741Z,13.27
2023-05-11T05:42:57.930Z,13.95
2023-05-11T05:43:40.095Z,13.60
2023-05-11T05:44:22.290Z,13.57
2023-05-11T05:45:06.715Z,13.27
2023-05-11T05:45:49.056Z,13.30
2023-05-11T05:46:31.252Z,14.07
2023-05-11T05:47:16.253Z,14.52
2023-05-11T05:48:00.489Z,13.70
2023-05-11T05:48:42.746Z,13.75
2023-05-11T05:49:24.884Z,13.00
2023-05-11T05:50:08.087Z,12.73
2023-05-11T05:50:50.768Z,13.80
2023-05-11T05:51:32.979Z,14.50
2023-05-11T05:52:15.108Z,13.43
2023-05-11T05:52:57.849Z,12.60
2023-05-11T05:53:40.079Z,13.82
2023-05-11T05:54:22.263Z,14.23
2023-05-11T05:55:04.522Z,13.57
2023-05-11T05:55:46.854Z,13.63
2023-05-11T05:56:29.088Z,14.63
2023-05-11T05:57:12.327Z,14.95
2023-05-11T05:57:55.968Z,14.32
2023-05-11T05:58:38.135Z,13.60
2023-05-11T05:59:23.381Z,13.50
2023-05-11T06:00:05.826Z,13.68
2023-05-11T06:00:48.021Z,13.75
2023-05-11T06:01:30.234Z,14.10
2023-05-11T06:02:13.567Z,13.32
2023-05-11T06:02:56.007Z,13.70
2023-05-11T06:03:40.056Z,13.70
2023-05-11T06:04:22.352Z,12.85
2023-05-11T06:05:04.763Z,13.70
2023-05-11T06:05:47.255Z,12.90
2023-05-11T06:06:29.502Z,14.30
2023-05-11T06:07:14.145Z,14.10
2023-05-11T06:08:09.305Z,13.00
2023-05-11T06:08:53.057Z,13.13
2023-05-11T06:09:37.354Z,13.43
2023-05-11T06:10:23.139Z,13.15
2023-05-11T06:11:05.445Z,12.77
2023-05-11T06:11:48.456Z,12.55
2023-05-11T06:12:31.222Z,13.10
2023-05-11T06:13:13.484Z,12.52
2023-05-11T06:13:55.999Z,12.10
2023-05-11T06:14:38.210Z,11.80
2023-05-11T06:15:20.384Z,11.52
2023-05-11T06:16:03.091Z,11.50
2023-05-11T06:16:45.318Z,12.95
2023-05-11T06:17:28.470Z,13.15
2023-05-11T06:18:11.118Z,12.50
2023-05-11T06:18:53.417Z,13.38
2023-05-11T06:19:36.009Z,12.65
2023-05-11T06:20:18.596Z,11.57
2023-05-11T06:21:01.023Z,11.43
2023-05-11T06:21:45.195Z,10.98
2023-05-11T06:22:27.377Z,11.40
2023-05-11T06:23:09.558Z,11.45
2023-05-11T06:23:51.948Z,11.65
2023-05-11T06:24:34.132Z,11.50
2023-05-11T06:25:16.340Z,11.27
2023-05-11T06:25:58.697Z,11.00
2023-05-11T06:26:41.169Z,11.10
2023-05-11T06:27:23.333Z,10.73
2023-05-11T06:28:06.044Z,11.70
2023-05-11T06:28:48.332Z,11.70
2023-05-11T06:29:30.658Z,11.25
2023-05-11T06:30:13.140Z,10.98
2023-05-11T06:30:59.137Z,10.50
2023-05-11T06:31:41.413Z,11.00
2023-05-11T06:32:23.660Z,10.13
2023-05-11T06:33:06.126Z,10.00
2023-05-11T06:33:48.316Z,12.00
2023-05-11T06:34:30.727Z,12.48
2023-05-11T06:35:12.990Z,11.80
2023-05-11T06:35:55.369Z,11.85
2023-05-11T06:36:37.621Z,12.18
2023-05-11T06:37:21.086Z,10.80
2023-05-11T06:38:03.553Z,11.10
2023-05-11T06:38:46.100Z,11.10
2023-05-11T06:39:28.285Z,12.13
2023-05-11T06:40:12.948Z,11.88
2023-05-11T06:40:57.750Z,11.50
2023-05-11T06:41:42.446Z,12.15
2023-05-11T06:42:24.622Z,11.40
2023-05-11T06:43:07.049Z,12.45
2023-05-11T06:43:49.308Z,11.15
2023-05-11T06:44:31.600Z,11.80
2023-05-11T06:45:13.964Z,11.70
2023-05-11T06:45:56.188Z,11.40
2023-05-11T06:46:38.369Z,10.75
2023-05-11T06:47:20.628Z,10.50
2023-05-11T06:48:03.441Z,11.60
2023-05-11T06:48:45.649Z,12.18
2023-05-11T06:49:27.995Z,12.82
2023-05-11T06:50:10.498Z,12.30
2023-05-11T06:50:52.817Z,11.85
2023-05-11T06:51:38.683Z,11.52
2023-05-11T06:52:20.862Z,11.25
2023-05-11T06:53:03.154Z,11.88
2023-05-11T06:53:45.475Z,12.68
2023-05-11T06:54:27.707Z,12.80
2023-05-11T06:55:14.192Z,12.02
2023-05-11T06:55:56.403Z,11.27
2023-05-11T06:56:38.766Z,12.55
2023-05-11T06:57:24.637Z,12.32
2023-05-11T06:58:07.387Z,12.50
2023-05-11T06:58:49.602Z,12.85
2023-05-11T06:59:32.554Z,11.82
2023-05-11T07:00:17.536Z,12.75
2023-05-11T07:01:00.067Z,12.98
2023-05-11T07:01:42.448Z,12.13
2023-05-11T07:02:24.886Z,12.45
2023-05-11T07:03:07.576Z,12.30
2023-05-11T07:03:51.328Z,12.20
2023-05-11T07:04:34.995Z,12.05
2023-05-11T07:05:17.471Z,13.48
2023-05-11T07:05:59.650Z,13.52
2023-05-11T07:06:41.874Z,13.30
2023-05-11T07:07:24.446Z,12.40
2023-05-11T07:08:06.715Z,13.70
2023-05-11T07:08:48.975Z,13.27
2023-05-11T07:09:31.571Z,14.27
2023-05-11T07:10:13.814Z,14.90
2023-05-11T07:10:58.526Z,15.10
2023-05-11T07:11:41.442Z,15.50
2023-05-11T07:12:23.606Z,16.02
2023-05-11T07:13:05.849Z,15.85
2023-05-11T07:13:48.149Z,14.85
2023-05-11T07:14:32.970Z,13.57
2023-05-11T07:15:17.548Z,14.27
2023-05-11T07:15:59.759Z,14.80
2023-05-11T07:16:42.807Z,14.52
2023-05-11T07:17:27.675Z,14.55
2023-05-11T07:18:09.989Z,15.63
2023-05-11T07:18:52.464Z,16.27
2023-05-11T07:19:34.720Z,16.30
2023-05-11T07:20:17.458Z,15.65
2023-05-11T07:20:59.836Z,15.43
2023-05-11T07:21:42.256Z,16.02
2023-05-11T07:22:24.510Z,15.98
2023-05-11T07:23:07.293Z,15.38
2023-05-11T07:23:49.602Z,15.93
2023-05-11T07:24:31.978Z,16.40
2023-05-11T07:25:14.308Z,15.35
2023-05-11T07:25:58.149Z,15.82
2023-05-11T07:26:40.419Z,16.27
2023-05-11T07:27:22.583Z,15.57
2023-05-11T07:28:04.761Z,16.00
2023-05-11T07:28:46.997Z,15.85
2023-05-11T07:29:29.403Z,15.88
2023-05-11T07:30:11.791Z,16.02
2023-05-11T07:30:53.960Z,14.95
2023-05-11T07:31:36.584Z,15.05
2023-05-11T07:32:18.838Z,14.85
2023-05-11T07:33:01.184Z,13.88
2023-05-11T07:33:43.466Z,14.02
2023-05-11T07:34:25.715Z,14.20
2023-05-11T07:35:08.267Z,13.95
2023-05-11T07:35:51.787Z,13.77
2023-05-11T07:36:34.067Z,15.23
2023-05-11T07:37:16.488Z,14.90
2023-05-11T07:37:58.683Z,14.35
2023-05-11T07:38:41.066Z,14.10
2023-05-11T07:39:23.468Z,14.57
2023-05-11T07:40:05.952Z,14.60
2023-05-11T07:40:48.393Z,13.77
2023-05-11T07:41:30.896Z,13.85
2023-05-11T07:42:13.071Z,13.70
2023-05-11T07:42:57.791Z,13.15
2023-05-11T07:43:39.974Z,14.55
2023-05-11T07:44:22.431Z,14.00
2023-05-11T07:45:05.040Z,13.15
2023-05-11T07:45:47.461Z,14.02
2023-05-11T07:46:29.824Z,13.52
2023-05-11T07:47:13.331Z,14.15
2023-05-11T07:47:56.194Z,14.13
2023-05-11T07:48:38.432Z,13.15
2023-05-11T07:49:25.467Z,13.95
2023-05-11T07:50:17.693Z,14.60
2023-05-11T07:51:00.931Z,13.93
2023-05-11T07:51:43.503Z,14.85
2023-05-11T07:52:25.882Z,13.90
2023-05-11T07:53:08.122Z,14.90
2023-05-11T07:53:52.886Z,14.55
2023-05-11T07:54:35.049Z,14.50
2023-05-11T07:55:20.210Z,14.82
2023-05-11T07:56:03.831Z,14.18
2023-05-11T07:56:46.261Z,14.55
2023-05-11T07:57:28.513Z,14.65
2023-05-11T07:58:10.666Z,14.20
2023-05-11T07:58:52.862Z,14.57
2023-05-11T07:59:35.053Z,13.38
2023-05-11T08:00:17.588Z,13.57
2023-05-11T08:00:59.970Z,14.00
2023-05-11T08:01:42.835Z,14.88
2023-05-11T08:02:25.340Z,14.10
2023-05-11T08:03:07.715Z,14.15
2023-05-11T08:03:49.946Z,12.95
2023-05-11T08:04:32.818Z,13.85
2023-05-11T08:05:15.069Z,13.13
2023-05-11T08:05:57.328Z,12.65
2023-05-11T08:06:40.095Z,13.05
2023-05-11T08:07:22.375Z,13.20
2023-05-11T08:08:05.202Z,13.50
2023-05-11T08:08:47.395Z,13.80
2023-05-11T08:09:32.247Z,13.07
2023-05-11T08:10:14.738Z,12.70
2023-05-11T08:10:57.142Z,12.63
2023-05-11T08:11:39.321Z,13.20
2023-05-11T08:12:24.042Z,12.30
2023-05-11T08:13:06.615Z,12.05
2023-05-11T08:13:48.823Z,12.02
2023-05-11T08:14:31.143Z,12.05
2023-05-11T08:15:13.372Z,11.65
2023-05-11T08:15:55.808Z,11.43
2023-05-11T08:16:40.736Z,11.57
2023-05-11T08:17:23.127Z,11.43
2023-05-11T08:18:06.371Z,11.65
2023-05-11T08:18:48.847Z,11.85
2023-05-11T08:19:31.176Z,11.80
2023-05-11T08:20:13.783Z,11.37
2023-05-11T08:20:56.015Z,12.05
2023-05-11T08:21:40.880Z,12.60
2023-05-11T08:22:23.216Z,12.75
2023-05-11T08:23:05.689Z,10.85
2023-05-11T08:23:47.842Z,11.40
2023-05-11T08:24:29.988Z,11.00
2023-05-11T08:25:12.278Z,11.05
2023-05-11T08:25:55.504Z,11.75
2023-05-11T08:26:38.131Z,12.20
2023-05-11T08:27:20.330Z,11.10
2023-05-11T08:28:02.847Z,11.85
2023-05-11T08:28:45.007Z,11.40
2023-05-11T08:29:27.573Z,9.82
2023-05-11T08:30:11.749Z,11.20
2023-05-11T08:30:55.518Z,11.85
2023-05-11T08:31:37.773Z,11.13
2023-05-11T08:32:20.015Z,11.60
2023-05-11T08:33:13.685Z,10.38
2023-05-11T08:34:13.728Z,10.80
2023-05-11T08:35:00.360Z,11.48
2023-05-11T08:35:43.065Z,10.73
2023-05-11T08:36:25.335Z,9.90
2023-05-11T08:37:07.560Z,11.23
2023-05-11T08:37:52.230Z,11.27
2023-05-11T08:38:35.921Z,10.68
2023-05-11T08:39:32.843Z,10.45
2023-05-11T08:40:20.962Z,11.10
2023-05-11T08:41:03.371Z,10.48
2023-05-11T08:41:47.077Z,10.98
2023-05-11T08:42:29.996Z,11.30
2023-05-11T08:43:12.447Z,9.98
2023-05-11T08:43:55.074Z,10.30
2023-05-11T08:44:39.110Z,10.10
2023-05-11T08:45:21.938Z,10.73
2023-05-11T08:46:07.310Z,10.65
2023-05-11T08:46:56.225Z,10.88
2023-05-11T08:47:48.852Z,10.55
2023-05-11T08:48:34.387Z,10.23
2023-05-11T08:49:19.052Z,10.50
2023-05-11T08:50:01.291Z,10.35
2023-05-11T08:50:43.478Z,10.45
2023-05-11T08:51:28.868Z,9.60
2023-05-11T08:52:11.695Z,10.02
2023-05-11T08:52:54.156Z,9.70
2023-05-11T08:53:36.486Z,9.68
2023-05-11T08:54:18.979Z,9.90
2023-05-11T08:55:01.190Z,9.98
2023-05-11T08:55:43.874Z,10.50
2023-05-11T08:56:27.000Z,10.15
2023-05-11T08:57:09.490Z,10.02
2023-05-11T08:57:52.161Z,9.70
2023-05-11T08:58:36.322Z,9.70
2023-05-11T08:59:19.333Z,10.32
2023-05-11T09:00:05.141Z,10.75
2023-05-11T09:00:47.355Z,9.93
2023-05-11T09:01:29.964Z,9.60
2023-05-11T09:02:14.861Z,10.02
2023-05-11T09:02:58.471Z,9.82
2023-05-11T09:03:41.239Z,10.02
2023-05-11T09:04:23.630Z,9.93
2023-05-11T09:05:06.431Z,9.70
2023-05-11T09:05:49.474Z,10.20
2023-05-11T09:06:32.167Z,9.52
2023-05-11T09:07:16.591Z,9.75
2023-05-11T09:08:02.470Z,9.77
2023-05-11T09:08:45.927Z,9.60
2023-05-11T09:09:28.662Z,9.32
2023-05-11T09:10:13.519Z,9.45
2023-05-11T09:10:56.217Z,10.30
2023-05-11T09:11:38.905Z,9.40
2023-05-11T09:12:21.143Z,9.00
2023-05-11T09:13:03.290Z,8.93
2023-05-11T09:13:45.695Z,9.18
2023-05-11T09:14:28.470Z,9.15
2023-05-11T09:15:10.945Z,9.32
2023-05-11T09:15:55.842Z,9.73
2023-05-11T09:16:38.207Z,9.50
2023-05-11T09:17:21.110Z,9.95
2023-05-11T09:18:03.765Z,9.68
2023-05-11T09:18:49.452Z,9.38
2023-05-11T09:19:33.961Z,9.30
2023-05-11T09:20:16.322Z,10.02
2023-05-11T09:20:58.977Z,10.23
2023-05-11T09:21:41.336Z,9.73
2023-05-11T09:22:23.497Z,9.73
2023-05-11T09:23:06.102Z,9.18
2023-05-11T09:23:52.162Z,9.23
2023-05-11T09:24:34.365Z,10.18
2023-05-11T09:25:17.783Z,9.50
2023-05-11T09:26:00.212Z,9.18
2023-05-11T09:26:42.390Z,8.82
2023-05-11T09:27:25.834Z,8.10
2023-05-11T09:28:15.901Z,8.63
2023-05-11T09:29:44.191Z,9.35
2023-05-11T09:30:26.627Z,9.00
2023-05-11T09:31:09.026Z,8.23